Time;durP1;ratioP1;P1;durP2;ratioP2;P2;SDS_P1;SDS_P2;PMS_P1;PMS_P2;Temp;Humidity;BMP_temperature;BMP_pressure;BME280_temperature;BME280_humidity;BME280_pressure;Samples;Min_cycle;Max_cycle;Signal;HPM_P1;HPM_P2
2022/10/21 00:01:28;;;;;;;13.85;8.63;;;;;;;;;;6071923;23;20019;-86
2022/10/21 00:03:56;;;;;;;11.82;6.47;;;;;;;;;;6071239;23;20324;-86
2022/10/21 00:06:24;;;;;;;6.80;5.72;;;;;;;;;;6046308;23;20045;-86
2022/10/21 00:08:52;;;;;;;8.57;6.75;;;;;;;;;;6047259;23;20026;-86
2022/10/21 00:11:20;;;;;;;7.47;6.40;;;;;;;;;;6047436;23;20373;-86
2022/10/21 00:13:47;;;;;;;10.05;8.85;;;;;;;;;;6081397;23;20018;-85
2022/10/21 00:16:17;;;;;;;15.02;7.25;;;;;;;;;;6066768;23;20042;-86
2022/10/21 00:18:45;;;;;;;9.32;7.30;;;;;;;;;;6116273;23;20036;-85
2022/10/21 00:21:15;;;;;;;8.40;7.18;;;;;;;;;;6104653;23;20025;-86
2022/10/21 00:23:43;;;;;;;10.00;7.53;;;;;;;;;;6110544;23;20029;-86
2022/10/21 00:26:12;;;;;;;13.07;8.27;;;;;;;;;;6134600;23;20022;-87
2022/10/21 00:28:40;;;;;;;10.00;6.82;;;;;;;;;;6110253;23;20345;-85
2022/10/21 00:31:10;;;;;;;7.82;6.32;;;;;;;;;;6099528;23;20033;-85
2022/10/21 00:33:38;;;;;;;7.22;6.38;;;;;;;;;;6047801;23;20022;-86
2022/10/21 00:36:07;;;;;;;7.72;6.93;;;;;;;;;;6070880;23;20028;-85
2022/10/21 00:38:35;;;;;;;12.73;6.15;;;;;;;;;;6070628;23;20108;-86
2022/10/21 00:41:10;;;;;;;7.53;6.57;;;;;;;;;;6071447;23;20489;-86
2022/10/21 00:43:55;;;;;;;7.50;6.75;;;;;;;;;;6074375;23;20030;-86
2022/10/21 00:46:27;;;;;;;12.23;7.50;;;;;;;;;;6046494;23;20084;-85
2022/10/21 00:48:56;;;;;;;7.00;6.28;;;;;;;;;;6070828;23;20023;-86
2022/10/21 00:51:24;;;;;;;7.00;6.30;;;;;;;;;;6057713;23;20027;-85
2022/10/21 00:53:52;;;;;;;10.57;6.65;;;;;;;;;;6023657;23;20022;-85
2022/10/21 00:56:25;;;;;;;9.57;7.72;;;;;;;;;;6094316;23;20027;-86
2022/10/21 00:58:54;;;;;;;11.88;8.45;;;;;;;;;;6052970;23;20018;-85
2022/10/21 01:01:22;;;;;;;7.97;6.95;;;;;;;;;;6070765;23;20026;-86
2022/10/21 01:03:50;;;;;;;14.90;8.13;;;;;;;;;;6096979;23;20034;-85
2022/10/21 01:06:23;;;;;;;13.98;8.75;;;;;;;;;;6094382;23;20023;-85
2022/10/21 01:08:53;;;;;;;19.83;7.28;;;;;;;;;;6105760;23;20018;-85
2022/10/21 01:11:35;;;;;;;14.85;7.65;;;;;;;;;;6070358;23;20018;-85
2022/10/21 01:14:07;;;;;;;11.30;9.63;;;;;;;;;;6094045;23;20025;-85
2022/10/21 01:16:55;;;;;;;11.30;8.50;;;;;;;;;;6072671;23;20022;-85
2022/10/21 01:19:29;;;;;;;7.55;6.78;;;;;;;;;;6041461;23;20023;-86
2022/10/21 01:22:00;;;;;;;11.70;8.35;;;;;;;;;;6106669;23;20018;-85
2022/10/21 01:24:34;;;;;;;13.02;9.13;;;;;;;;;;6099451;23;20030;-85
2022/10/21 01:27:14;;;;;;;9.55;6.85;;;;;;;;;;6128866;23;20033;-85
2022/10/21 01:30:01;;;;;;;17.63;9.80;;;;;;;;;;6110258;23;20022;-85
2022/10/21 01:32:41;;;;;;;8.45;7.18;;;;;;;;;;6099024;23;20033;-86
2022/10/21 01:35:12;;;;;;;10.57;7.97;;;;;;;;;;6130674;23;20457;-86
2022/10/21 01:37:40;;;;;;;11.43;8.38;;;;;;;;;;6137532;23;20469;-85
2022/10/21 01:40:19;;;;;;;13.65;10.25;;;;;;;;;;6128456;23;20037;-86
2022/10/21 01:42:51;;;;;;;8.02;6.65;;;;;;;;;;6107605;23;20338;-85
2022/10/21 01:45:19;;;;;;;12.13;10.30;;;;;;;;;;6111771;23;20021;-85
2022/10/21 01:47:49;;;;;;;9.80;7.78;;;;;;;;;;6103729;23;20029;-86
2022/10/21 01:50:22;;;;;;;12.85;8.52;;;;;;;;;;6134376;23;20330;-86
2022/10/21 01:52:52;;;;;;;14.80;8.05;;;;;;;;;;6136320;23;20010;-85
2022/10/21 01:55:21;;;;;;;14.82;9.13;;;;;;;;;;6131348;23;20026;-86
2022/10/21 01:57:53;;;;;;;11.68;7.60;;;;;;;;;;6100739;23;20025;-85
2022/10/21 02:00:21;;;;;;;12.13;8.68;;;;;;;;;;6125522;23;20033;-85
2022/10/21 02:02:49;;;;;;;9.73;6.97;;;;;;;;;;6100979;23;20458;-86
2022/10/21 02:05:25;;;;;;;12.18;6.88;;;;;;;;;;6136596;23;20025;-85
2022/10/21 02:07:53;;;;;;;19.17;8.65;;;;;;;;;;6127269;23;20018;-85
2022/10/21 02:10:23;;;;;;;13.52;8.23;;;;;;;;;;6100324;23;20434;-85
2022/10/21 02:12:52;;;;;;;10.02;8.90;;;;;;;;;;6101215;23;20033;-86
2022/10/21 02:15:23;;;;;;;14.02;7.82;;;;;;;;;;6129563;23;20048;-86
2022/10/21 02:17:56;;;;;;;12.70;7.85;;;;;;;;;;6111810;23;20036;-86
2022/10/21 02:20:26;;;;;;;11.35;7.03;;;;;;;;;;6100329;23;20026;-86
2022/10/21 02:22:54;;;;;;;11.93;8.02;;;;;;;;;;6131260;23;20025;-85
2022/10/21 02:25:25;;;;;;;8.25;7.22;;;;;;;;;;6111792;23;20021;-86
2022/10/21 02:27:53;;;;;;;10.68;7.70;;;;;;;;;;6076745;23;20472;-85
2022/10/21 02:30:20;;;;;;;9.13;7.93;;;;;;;;;;6109645;23;20018;-86
2022/10/21 02:32:59;;;;;;;14.10;10.18;;;;;;;;;;6111352;23;20010;-85
2022/10/21 02:35:38;;;;;;;17.50;7.95;;;;;;;;;;6129623;23;20026;-85
2022/10/21 02:38:11;;;;;;;10.10;9.13;;;;;;;;;;6100603;23;20018;-85
2022/10/21 02:40:42;;;;;;;11.57;8.27;;;;;;;;;;6135493;23;20014;-85
2022/10/21 02:43:31;;;;;;;8.80;7.85;;;;;;;;;;6050855;23;20033;-86
2022/10/21 02:46:24;;;;;;;12.68;9.88;;;;;;;;;;6063014;23;20022;-95
2022/10/21 02:48:53;;;;;;;8.45;7.45;;;;;;;;;;6102449;23;20028;-94
2022/10/21 02:51:24;;;;;;;10.70;9.35;;;;;;;;;;6072664;23;20025;-94
2022/10/21 02:53:52;;;;;;;14.38;8.38;;;;;;;;;;6126469;23;20025;-93
2022/10/21 02:56:26;;;;;;;;;;;;;;;;;;6104520;23;20085;-95
2022/10/21 02:58:56;;;;;;;8.07;7.25;;;;;;;;;;6074272;23;19924;-94
2022/10/21 03:01:27;;;;;;;10.57;8.93;;;;;;;;;;6071909;23;20048;-95
2022/10/21 03:04:02;;;;;;;9.60;8.27;;;;;;;;;;6104785;23;20062;-94
2022/10/21 03:06:40;;;;;;;11.02;7.85;;;;;;;;;;6081383;23;20109;-94
2022/10/21 03:09:17;;;;;;;13.00;8.85;;;;;;;;;;6102280;23;20029;-94
2022/10/21 03:16:36;;;;;;;7.85;7.07;;;;;;;;;;6127147;23;20057;-95
2022/10/21 03:19:12;;;;;;;16.73;7.97;;;;;;;;;;6113474;23;20086;-93
2022/10/21 03:21:48;;;;;;;19.67;8.43;;;;;;;;;;6123685;23;20063;-94
2022/10/21 03:24:40;;;;;;;10.50;8.68;;;;;;;;;;6112863;23;20085;-94
2022/10/21 03:27:14;;;;;;;7.88;6.50;;;;;;;;;;6082314;23;20061;-94
2022/10/21 03:30:12;;;;;;;8.75;6.45;;;;;;;;;;6097751;23;20026;-94
2022/10/21 03:32:55;;;;;;;12.93;9.80;;;;;;;;;;6081418;23;20016;-95
2022/10/21 03:35:38;;;;;;;12.57;9.05;;;;;;;;;;6106969;23;20069;-95
2022/10/21 03:38:54;;;;;;;9.43;8.43;;;;;;;;;;6098525;23;20167;-95
2022/10/21 03:41:44;;;;;;;11.13;8.70;;;;;;;;;;6127510;23;20045;-96
2022/10/21 03:44:19;;;;;;;13.43;8.27;;;;;;;;;;6097117;23;20010;-94
2022/10/21 03:46:59;;;;;;;11.13;8.77;;;;;;;;;;6106353;23;20054;-94
2022/10/21 03:49:41;;;;;;;10.10;7.43;;;;;;;;;;6106459;23;20057;-95
2022/10/21 03:52:16;;;;;;;10.35;8.73;;;;;;;;;;6079398;23;20069;-94
2022/10/21 03:54:54;;;;;;;10.27;8.15;;;;;;;;;;6089304;23;20001;-94
2022/10/21 03:57:31;;;;;;;10.60;8.25;;;;;;;;;;6105262;23;20066;-93
2022/10/21 04:00:09;;;;;;;13.23;9.57;;;;;;;;;;6080285;23;20077;-95
2022/10/21 04:02:44;;;;;;;13.40;8.57;;;;;;;;;;6098762;23;20022;-95
2022/10/21 04:05:23;;;;;;;9.82;6.60;;;;;;;;;;6100885;23;20017;-95
2022/10/21 04:08:02;;;;;;;14.20;8.73;;;;;;;;;;6114243;23;20078;-94
2022/10/21 04:15:10;;;;;;;15.85;9.73;;;;;;;;;;6122333;23;20029;-94
2022/10/21 04:17:44;;;;;;;10.32;9.25;;;;;;;;;;6103854;23;20070;-95
2022/10/21 04:20:15;;;;;;;20.30;10.40;;;;;;;;;;6104565;23;20067;-94
2022/10/21 04:22:52;;;;;;;12.45;9.20;;;;;;;;;;6103003;23;20096;-95
2022/10/21 04:25:20;;;;;;;11.93;8.65;;;;;;;;;;6092740;23;20022;-94
2022/10/21 04:27:51;;;;;;;27.10;12.00;;;;;;;;;;6096732;23;20025;-94
2022/10/21 04:30:29;;;;;;;11.57;10.43;;;;;;;;;;6100769;23;20081;-93
2022/10/21 04:33:00;;;;;;;13.30;9.60;;;;;;;;;;6074643;23;20017;-94
2022/10/21 04:35:34;;;;;;;11.52;7.53;;;;;;;;;;6119367;23;20024;-94
2022/10/21 04:38:02;;;;;;;;;;;;;;;;;;6092229;23;20025;-94
2022/10/21 04:45:10;;;;;;;16.33;6.93;;;;;;;;;;6123184;23;20033;-94
2022/10/21 04:48:09;;;;;;;10.30;9.27;;;;;;;;;;6099345;23;20074;-95
2022/10/21 04:50:44;;;;;;;12.32;8.32;;;;;;;;;;6086798;23;20069;-93
2022/10/21 04:53:15;;;;;;;10.50;7.80;;;;;;;;;;6104141;23;20101;-94
2022/10/21 04:55:51;;;;;;;17.90;10.45;;;;;;;;;;6098013;23;20022;-94
2022/10/21 04:58:41;;;;;;;14.18;7.55;;;;;;;;;;6026091;23;20018;-89
2022/10/21 05:01:11;;;;;;;14.38;7.53;;;;;;;;;;6048440;23;20014;-92
2022/10/21 05:04:01;;;;;;;8.05;7.00;;;;;;;;;;6073537;23;20030;-90
2022/10/21 05:06:42;;;;;;;10.50;7.45;;;;;;;;;;6049882;23;20029;-93
2022/10/21 05:09:11;;;;;;;11.50;8.38;;;;;;;;;;6050934;23;20033;-93
2022/10/21 05:15:17;;;;;;;20.58;11.43;;;;;;;;;;6081514;23;20027;-89
2022/10/21 05:17:45;;;;;;;12.45;8.82;;;;;;;;;;6073921;23;20022;-92
2022/10/21 05:20:13;;;;;;;10.90;8.32;;;;;;;;;;6073685;23;20026;-92
2022/10/21 05:22:51;;;;;;;13.63;9.23;;;;;;;;;;6074025;23;20022;-91
2022/10/21 05:25:20;;;;;;;11.32;8.48;;;;;;;;;;6075456;23;20025;-92
2022/10/21 05:27:51;;;;;;;10.15;8.95;;;;;;;;;;6001442;23;20851;-90
2022/10/21 05:30:19;;;;;;;10.27;7.40;;;;;;;;;;5997395;23;20028;-92
2022/10/21 05:33:05;;;;;;;13.93;9.55;;;;;;;;;;6021349;23;20506;-90
2022/10/21 05:35:35;;;;;;;11.85;9.52;;;;;;;;;;6001449;23;20042;-93
2022/10/21 05:38:43;;;;;;;12.38;9.70;;;;;;;;;;5988248;23;20016;-90
2022/10/21 05:46:10;;;;;;;11.45;8.40;;;;;;;;;;6075911;23;20428;-92
2022/10/21 06:05:21;;;;;;;13.50;8.10;;;;;;;;;;6155210;23;20025;-90
2022/10/21 06:07:53;;;;;;;10.55;7.80;;;;;;;;;;6105948;23;20437;-89
2022/10/21 06:10:30;;;;;;;11.48;9.05;;;;;;;;;;6079438;23;20021;-89
2022/10/21 06:13:12;;;;;;;16.40;9.27;;;;;;;;;;6086312;23;20013;-89
2022/10/21 06:15:39;;;;;;;13.90;10.10;;;;;;;;;;6104986;23;20465;-89
2022/10/21 06:18:07;;;;;;;17.13;8.90;;;;;;;;;;6135978;23;20013;-89
2022/10/21 06:20:35;;;;;;;12.13;9.27;;;;;;;;;;6101859;23;20025;-89
2022/10/21 06:23:03;;;;;;;11.75;8.52;;;;;;;;;;6131544;23;20032;-89
2022/10/21 06:25:31;;;;;;;13.57;9.15;;;;;;;;;;6102565;23;20017;-89
2022/10/21 06:27:59;;;;;;;11.40;8.27;;;;;;;;;;6101612;23;20033;-89
2022/10/21 06:30:27;;;;;;;14.68;8.20;;;;;;;;;;6134136;23;20025;-89
2022/10/21 06:32:55;;;;;;;12.60;8.93;;;;;;;;;;6104478;23;20492;-90
2022/10/21 06:35:23;;;;;;;11.38;8.18;;;;;;;;;;6099712;23;20349;-90
2022/10/21 06:37:50;;;;;;;15.23;8.60;;;;;;;;;;6126469;23;20424;-89
2022/10/21 06:40:51;;;;;;;10.65;9.25;;;;;;;;;;6162042;23;20753;-90
2022/10/21 06:43:28;;;;;;;10.50;8.93;;;;;;;;;;6104422;23;20032;-91
2022/10/21 06:46:03;;;;;;;19.08;9.65;;;;;;;;;;6103039;23;20025;-90
2022/10/21 06:48:31;;;;;;;11.25;9.52;;;;;;;;;;6057121;23;20355;-91
2022/10/21 06:51:07;;;;;;;10.18;8.98;;;;;;;;;;6062135;23;20026;-90
2022/10/21 06:53:35;;;;;;;13.90;9.23;;;;;;;;;;6038792;23;20045;-90
2022/10/21 06:56:08;;;;;;;16.27;9.80;;;;;;;;;;6013542;23;20046;-90
2022/10/21 06:58:37;;;;;;;11.07;8.00;;;;;;;;;;6040276;23;20178;-90
2022/10/21 07:01:08;;;;;;;11.60;7.80;;;;;;;;;;6048747;23;20026;-90
2022/10/21 07:03:55;;;;;;;11.98;6.93;;;;;;;;;;6017016;23;20030;-90
2022/10/21 07:06:22;;;;;;;18.17;8.95;;;;;;;;;;6045212;23;20023;-89
2022/10/21 07:08:50;;;;;;;8.93;7.38;;;;;;;;;;6037505;23;20334;-91
2022/10/21 07:11:31;;;;;;;13.85;6.72;;;;;;;;;;6014981;23;20151;-89
2022/10/21 07:14:02;;;;;;;10.90;6.75;;;;;;;;;;6067742;23;20022;-90
2022/10/21 07:16:32;;;;;;;9.18;8.07;;;;;;;;;;6036843;23;20370;-90
2022/10/21 07:19:00;;;;;;;9.68;7.50;;;;;;;;;;6033655;23;20032;-90
2022/10/21 07:21:29;;;;;;;9.77;6.55;;;;;;;;;;6101797;23;20456;-90
2022/10/21 07:23:57;;;;;;;7.82;6.35;;;;;;;;;;6100017;23;20037;-90
2022/10/21 07:26:27;;;;;;;12.73;7.25;;;;;;;;;;6132098;23;20025;-90
2022/10/21 07:28:56;;;;;;;7.18;5.57;;;;;;;;;;6135660;23;20024;-89
2022/10/21 07:31:24;;;;;;;7.97;6.60;;;;;;;;;;6155210;23;20037;-90
2022/10/21 07:33:52;;;;;;;10.40;8.07;;;;;;;;;;6125786;23;20833;-90
2022/10/21 07:36:23;;;;;;;11.85;8.10;;;;;;;;;;6086844;23;20029;-91
2022/10/21 07:38:52;;;;;;;6.95;6.28;;;;;;;;;;6100761;23;20018;-90
2022/10/21 07:41:24;;;;;;;11.07;7.35;;;;;;;;;;6134467;23;20014;-90
2022/10/21 07:43:53;;;;;;;8.75;7.65;;;;;;;;;;6100460;23;20036;-90
2022/10/21 07:46:21;;;;;;;10.20;6.45;;;;;;;;;;6133804;23;20036;-90
2022/10/21 07:48:49;;;;;;;11.27;6.63;;;;;;;;;;6101182;23;20489;-90
2022/10/21 07:51:19;;;;;;;10.65;7.53;;;;;;;;;;6100109;23;20033;-90
2022/10/21 07:53:51;;;;;;;12.10;8.15;;;;;;;;;;6101290;23;20018;-91
2022/10/21 07:56:28;;;;;;;8.82;6.03;;;;;;;;;;6100608;23;20025;-91
2022/10/21 07:58:56;;;;;;;10.05;7.28;;;;;;;;;;6100803;23;20027;-90
2022/10/21 08:01:24;;;;;;;10.82;6.72;;;;;;;;;;6125958;23;20018;-90
2022/10/21 08:03:53;;;;;;;9.68;6.72;;;;;;;;;;6076723;23;20025;-90
2022/10/21 08:06:22;;;;;;;12.90;6.47;;;;;;;;;;6100205;23;20026;-91
2022/10/21 08:08:50;;;;;;;13.07;7.68;;;;;;;;;;6125686;23;20021;-90
2022/10/21 08:11:29;;;;;;;10.35;6.95;;;;;;;;;;6100524;23;20022;-91
2022/10/21 08:13:56;;;;;;;8.82;7.80;;;;;;;;;;6125568;23;20029;-90
2022/10/21 08:16:25;;;;;;;11.43;6.90;;;;;;;;;;6124545;23;20432;-91
2022/10/21 08:18:53;;;;;;;9.30;7.43;;;;;;;;;;6100853;23;20021;-90
2022/10/21 08:21:21;;;;;;;11.35;6.72;;;;;;;;;;6101172;23;20621;-87
2022/10/21 08:23:49;;;;;;;7.03;6.32;;;;;;;;;;6076729;23;20033;-90
2022/10/21 08:26:17;;;;;;;14.00;7.45;;;;;;;;;;6126338;23;20025;-91
2022/10/21 08:28:45;;;;;;;7.25;6.38;;;;;;;;;;6101655;23;20022;-90
2022/10/21 08:31:14;;;;;;;7.72;6.20;;;;;;;;;;6125714;23;20029;-91
2022/10/21 08:33:42;;;;;;;7.57;5.60;;;;;;;;;;6125602;23;20021;-90
2022/10/21 08:36:23;;;;;;;10.65;6.90;;;;;;;;;;6124561;23;20033;-91
2022/10/21 08:38:52;;;;;;;6.32;5.65;;;;;;;;;;6125987;23;20060;-90
2022/10/21 08:41:52;;;;;;;8.73;6.25;;;;;;;;;;6125030;23;20032;-89
2022/10/21 08:44:25;;;;;;;7.72;6.15;;;;;;;;;;6124909;23;20612;-87
2022/10/21 08:46:57;;;;;;;9.85;7.32;;;;;;;;;;6157431;23;20021;-90
2022/10/21 08:49:28;;;;;;;8.93;7.18;;;;;;;;;;6125378;23;20017;-90
2022/10/21 08:52:02;;;;;;;10.35;7.30;;;;;;;;;;6125430;23;20341;-90
2022/10/21 08:54:40;;;;;;;8.48;7.30;;;;;;;;;;6149653;23;20021;-91
2022/10/21 08:57:09;;;;;;;9.88;6.85;;;;;;;;;;6150170;23;20021;-91
2022/10/21 08:59:40;;;;;;;11.32;6.78;;;;;;;;;;6125060;23;20030;-91
2022/10/21 09:02:18;;;;;;;9.55;7.40;;;;;;;;;;6124781;23;20022;-90
2022/10/21 09:05:01;;;;;;;10.02;6.45;;;;;;;;;;6126239;23;20045;-90
2022/10/21 09:07:48;;;;;;;15.52;8.48;;;;;;;;;;6100687;23;20433;-90
2022/10/21 09:10:28;;;;;;;10.55;7.80;;;;;;;;;;6158126;23;20040;-91
2022/10/21 09:12:56;;;;;;;9.25;8.10;;;;;;;;;;6126413;23;20017;-91
2022/10/21 09:15:47;;;;;;;8.45;7.55;;;;;;;;;;6149889;23;20044;-91
2022/10/21 09:18:25;;;;;;;11.48;7.07;;;;;;;;;;6143327;23;20026;-90
2022/10/21 09:21:04;;;;;;;13.18;6.72;;;;;;;;;;6135876;23;20021;-90
2022/10/21 09:23:32;;;;;;;10.95;7.38;;;;;;;;;;6125614;23;20432;-91
2022/10/21 09:26:01;;;;;;;9.15;8.25;;;;;;;;;;6100700;23;20017;-90
2022/10/21 09:28:30;;;;;;;7.20;5.78;;;;;;;;;;6101160;23;20017;-90
2022/10/21 09:31:00;;;;;;;12.65;6.65;;;;;;;;;;6149089;23;20032;-90
2022/10/21 09:33:29;;;;;;;8.50;6.90;;;;;;;;;;6125225;23;20021;-90
2022/10/21 09:36:02;;;;;;;17.00;7.20;;;;;;;;;;6123311;23;20672;-90
2022/10/21 09:38:41;;;;;;;9.23;7.22;;;;;;;;;;6159895;23;20028;-88
2022/10/21 09:41:13;;;;;;;10.40;6.78;;;;;;;;;;6160700;23;20021;-90
2022/10/21 09:43:42;;;;;;;9.27;7.75;;;;;;;;;;6124889;23;20044;-90
2022/10/21 09:46:12;;;;;;;7.95;5.65;;;;;;;;;;6125489;23;20074;-90
2022/10/21 09:48:41;;;;;;;8.18;6.32;;;;;;;;;;6125764;23;20028;-90
2022/10/21 09:51:33;;;;;;;9.65;6.13;;;;;;;;;;6153300;23;20094;-89
2022/10/21 09:54:04;;;;;;;20.90;10.50;;;;;;;;;;6124611;23;20028;-90
2022/10/21 09:56:53;;;;;;;15.73;9.57;;;;;;;;;;6127052;23;20464;-90
2022/10/21 09:59:24;;;;;;;69.13;35.95;;;;;;;;;;6126376;23;20022;-90
2022/10/21 10:02:05;;;;;;;12.43;7.68;;;;;;;;;;6162564;23;20460;-88
2022/10/21 10:04:34;;;;;;;10.50;7.22;;;;;;;;;;6176334;23;20044;-90
2022/10/21 10:07:17;;;;;;;11.02;7.65;;;;;;;;;;6130526;23;20029;-89
2022/10/21 10:09:52;;;;;;;12.77;7.63;;;;;;;;;;6133018;23;20032;-90
2022/10/21 10:12:24;;;;;;;8.18;6.72;;;;;;;;;;6131762;23;20033;-90
2022/10/21 10:14:52;;;;;;;12.48;6.60;;;;;;;;;;6107578;23;20488;-90
2022/10/21 10:17:23;;;;;;;7.55;5.43;;;;;;;;;;6167635;23;20024;-90
2022/10/21 10:20:03;;;;;;;9.07;6.05;;;;;;;;;;6158701;23;20025;-90
2022/10/21 10:22:32;;;;;;;;;;;;;;;;;;6131907;23;20020;-89
2022/10/21 10:25:16;;;;;;;10.60;6.30;;;;;;;;;;6191839;23;19919;-89
2022/10/21 10:27:56;;;;;;;11.90;8.60;;;;;;;;;;6155022;23;20032;-91
2022/10/21 10:30:26;;;;;;;12.27;8.52;;;;;;;;;;6118207;23;20026;-91
2022/10/21 10:33:20;;;;;;;11.40;6.43;;;;;;;;;;6160261;23;20321;-92
2022/10/21 10:35:52;;;;;;;11.48;7.00;;;;;;;;;;6122848;23;20025;-92
2022/10/21 10:38:34;;;;;;;8.05;5.72;;;;;;;;;;6111918;23;20017;-93
2022/10/21 10:41:15;;;;;;;5.28;4.85;;;;;;;;;;6170992;23;20028;-91
2022/10/21 10:43:47;;;;;;;9.55;5.78;;;;;;;;;;6185631;23;20028;-92
2022/10/21 10:46:30;;;;;;;7.28;5.30;;;;;;;;;;6111210;23;20021;-93
2022/10/21 10:49:14;;;;;;;7.75;6.22;;;;;;;;;;6112446;23;20021;-92
2022/10/21 10:52:39;;;;;;;9.43;5.93;;;;;;;;;;6107480;23;20111;31
2022/10/21 11:24:22;;;;;;;10.13;8.38;;;;;;;;;;6085542;23;20067;-85
2022/10/21 11:43:54;;;;;;;9.18;8.25;;;;;;;;;;6126976;23;20025;-91
2022/10/21 11:46:28;;;;;;;7.90;6.75;;;;;;;;;;6111070;23;20057;-89
2022/10/21 11:49:13;;;;;;;14.25;8.63;;;;;;;;;;6101279;23;20018;-93
2022/10/21 11:52:16;;;;;;;13.20;7.97;;;;;;;;;;6117128;23;20030;-90
2022/10/21 11:59:31;;;;;;;14.70;6.93;;;;;;;;;;6089838;23;20018;-92
2022/10/21 12:02:09;;;;;;;10.63;9.02;;;;;;;;;;6040695;23;20023;-91
2022/10/21 12:08:57;;;;;;;10.52;7.05;;;;;;;;;;6051407;23;20026;-89
2022/10/21 12:24:14;;;;;;;14.55;7.25;;;;;;;;;;6001414;23;20024;-88
2022/10/21 12:26:52;;;;;;;13.25;6.32;;;;;;;;;;5956790;23;20032;-86
2022/10/21 12:29:41;;;;;;;9.10;5.90;;;;;;;;;;6066614;23;20050;-87
2022/10/21 12:32:22;;;;;;;9.75;5.32;;;;;;;;;;6041823;23;20034;-85
2022/10/21 12:34:49;;;;;;;15.85;8.52;;;;;;;;;;6135207;23;20029;-86
2022/10/21 12:37:36;;;;;;;11.32;6.95;;;;;;;;;;6159241;23;20024;-87
2022/10/21 12:40:36;;;;;;;10.43;5.75;;;;;;;;;;6127773;23;20036;-87
2022/10/21 12:43:27;;;;;;;10.95;6.05;;;;;;;;;;6126316;23;20072;-87
2022/10/21 12:46:07;;;;;;;8.32;4.72;;;;;;;;;;6184855;23;20017;-86
2022/10/21 12:48:38;;;;;;;9.05;6.72;;;;;;;;;;6164674;23;20443;-86
2022/10/21 12:51:29;;;;;;;5.15;4.65;;;;;;;;;;6159471;23;20036;-87
2022/10/21 12:54:02;;;;;;;13.73;5.43;;;;;;;;;;6129953;23;20482;-86
2022/10/21 12:56:37;;;;;;;5.07;3.72;;;;;;;;;;6154460;23;20456;-87
2022/10/21 12:59:15;;;;;;;14.35;4.15;;;;;;;;;;6101759;23;20044;-87
2022/10/21 13:02:10;;;;;;;4.43;3.67;;;;;;;;;;6122461;23;20021;-86
2022/10/21 13:04:46;;;;;;;3.13;2.83;;;;;;;;;;6139135;23;20025;-87
2022/10/21 13:11:06;;;;;;;6.22;2.35;;;;;;;;;;6131332;23;20025;-92
2022/10/21 13:13:45;;;;;;;3.40;3.10;;;;;;;;;;6106487;23;20017;-87
2022/10/21 13:16:23;;;;;;;7.25;3.03;;;;;;;;;;6108826;23;20444;-86
2022/10/21 13:19:01;;;;;;;38.70;6.15;;;;;;;;;;6111360;23;20025;-93
2022/10/21 13:21:46;;;;;;;6.03;3.67;;;;;;;;;;6082132;23;20022;-91
2022/10/21 13:24:22;;;;;;;8.27;4.85;;;;;;;;;;6101961;23;20037;-91
2022/10/21 13:26:51;;;;;;;2.97;2.05;;;;;;;;;;6108278;23;20040;-91
2022/10/21 13:29:33;;;;;;;3.20;2.45;;;;;;;;;;6081642;23;20024;-90
2022/10/21 13:32:10;;;;;;;11.85;2.10;;;;;;;;;;6079581;23;20025;-91
2022/10/21 13:34:39;;;;;;;2.83;1.90;;;;;;;;;;6127154;23;20028;-89
2022/10/21 13:37:14;;;;;;;2.53;1.90;;;;;;;;;;6079746;23;20029;-90
2022/10/21 13:40:15;;;;;;;5.38;2.90;;;;;;;;;;6102567;23;20456;-86
2022/10/21 13:42:44;;;;;;;3.75;1.65;;;;;;;;;;6130738;23;20779;-87
2022/10/21 13:45:24;;;;;;;1.63;1.30;;;;;;;;;;6117354;23;20021;-87
2022/10/21 13:48:07;;;;;;;4.47;1.73;;;;;;;;;;6132785;23;20024;-87
2022/10/21 13:50:43;;;;;;;6.43;3.13;;;;;;;;;;6130574;23;20021;-87
2022/10/21 13:53:17;;;;;;;6.45;2.63;;;;;;;;;;6107170;23;20024;-90
2022/10/21 13:55:57;;;;;;;4.93;1.98;;;;;;;;;;6081544;23;20078;-91
2022/10/21 13:58:25;;;;;;;3.60;1.95;;;;;;;;;;6115383;23;20022;-92
2022/10/21 14:00:53;;;;;;;3.17;1.65;;;;;;;;;;6119289;23;20009;-93
2022/10/21 14:03:26;;;;;;;4.03;1.65;;;;;;;;;;6085848;23;20024;-93
2022/10/21 14:05:58;;;;;;;4.00;2.45;;;;;;;;;;6108568;23;20022;-92
2022/10/21 14:08:31;;;;;;;2.70;2.03;;;;;;;;;;6085579;23;20421;-95
2022/10/21 14:49:44;;;;;;;3.05;1.20;;;;;;;;;;6150841;23;20030;-91
2022/10/21 14:52:47;;;;;;;1.95;1.80;;;;;;;;;;6053831;23;20030;-90
2022/10/21 14:55:29;;;;;;;2.03;0.85;;;;;;;;;;6032199;23;20027;-91
2022/10/21 14:58:02;;;;;;;4.03;1.70;;;;;;;;;;6043118;23;20033;-87
2022/10/21 15:00:33;;;;;;;2.72;1.48;;;;;;;;;;6018693;23;20015;-90
2022/10/21 15:03:03;;;;;;;2.47;1.63;;;;;;;;;;6066969;23;20474;-87
2022/10/21 15:05:37;;;;;;;3.22;1.20;;;;;;;;;;6018580;23;20023;-87
2022/10/21 15:08:24;;;;;;;5.93;1.20;;;;;;;;;;6042644;23;20019;-92
2022/10/21 15:16:17;;;;;;;2.47;1.23;;;;;;;;;;6027759;23;20478;-92
2022/10/21 15:18:47;;;;;;;1.00;0.90;;;;;;;;;;5967262;23;20019;-86
2022/10/21 15:21:24;;;;;;;1.20;1.10;;;;;;;;;;6022886;23;20019;-85
2022/10/21 15:23:54;;;;;;;1.20;1.08;;;;;;;;;;6088337;23;20018;-86
2022/10/21 15:26:48;;;;;;;2.10;1.50;;;;;;;;;;6069850;23;20018;-92
2022/10/21 15:29:45;;;;;;;1.35;1.13;;;;;;;;;;6058336;23;20025;-93
2022/10/21 15:32:20;;;;;;;6.22;1.05;;;;;;;;;;6046205;23;20050;-91
2022/10/21 15:35:01;;;;;;;5.85;0.93;;;;;;;;;;5968623;23;20024;-92
2022/10/21 15:37:53;;;;;;;2.63;1.50;;;;;;;;;;5967135;23;20030;-91
2022/10/21 15:40:32;;;;;;;4.20;1.00;;;;;;;;;;5953405;23;20042;-90
2022/10/21 15:43:09;;;;;;;2.92;0.70;;;;;;;;;;6029489;23;20467;-92
2022/10/21 15:45:50;;;;;;;0.95;0.88;;;;;;;;;;6020995;23;20508;-91
2022/10/21 15:48:44;;;;;;;0.75;0.70;;;;;;;;;;5997609;23;20038;-84
2022/10/21 15:51:12;;;;;;;2.95;0.70;;;;;;;;;;6017164;23;20027;-83
2022/10/21 15:53:43;;;;;;;0.77;0.77;;;;;;;;;;6018130;23;20030;-83
2022/10/21 15:56:15;;;;;;;1.10;0.98;;;;;;;;;;6025120;23;20470;-84
2022/10/21 15:58:43;;;;;;;1.48;0.75;;;;;;;;;;6117741;23;20025;-90
2022/10/21 16:01:16;;;;;;;2.53;0.70;;;;;;;;;;6130761;23;20017;-90
2022/10/21 16:03:53;;;;;;;2.83;1.38;;;;;;;;;;6107492;23;20022;-90
2022/10/21 16:06:28;;;;;;;1.55;0.90;;;;;;;;;;6077339;23;20318;-83
2022/10/21 16:08:56;;;;;;;3.42;1.60;;;;;;;;;;6110410;23;20468;-83
2022/10/21 16:12:07;;;;;;;0.70;0.70;;;;;;;;;;6085198;23;20033;-87
2022/10/21 16:14:43;;;;;;;1.10;1.08;;;;;;;;;;6103918;23;20027;-83
2022/10/21 16:17:14;;;;;;;;;;;;;;;;;;6076782;23;20433;-83
2022/10/21 16:20:03;;;;;;;2.78;1.30;;;;;;;;;;6089131;23;19928;-84
2022/10/21 16:22:34;;;;;;;2.95;1.88;;;;;;;;;;6104575;23;20456;-84
2022/10/21 16:25:02;;;;;;;3.70;2.53;;;;;;;;;;6129683;23;20022;-84
2022/10/21 16:27:30;;;;;;;2.85;1.70;;;;;;;;;;6148705;23;20022;-83
2022/10/21 16:30:23;;;;;;;2.53;0.95;;;;;;;;;;6102314;23;20033;-83
2022/10/21 16:32:51;;;;;;;1.55;1.27;;;;;;;;;;6115278;23;20009;-85
2022/10/21 16:35:24;;;;;;;2.25;1.33;;;;;;;;;;6132984;23;20349;-90
2022/10/21 16:38:16;;;;;;;1.70;1.58;;;;;;;;;;6102637;23;20025;-84
2022/10/21 16:40:44;;;;;;;1.25;0.90;;;;;;;;;;6154740;23;20021;-84
2022/10/21 16:43:15;;;;;;;1.85;1.23;;;;;;;;;;6143839;23;20455;-84
2022/10/21 16:45:43;;;;;;;1.67;1.40;;;;;;;;;;6161176;23;20017;-84
2022/10/21 16:48:11;;;;;;;5.93;1.60;;;;;;;;;;6151235;23;20025;-84
2022/10/21 16:50:40;;;;;;;0.95;0.95;;;;;;;;;;6157726;23;20033;-84
2022/10/21 16:53:12;;;;;;;1.92;1.25;;;;;;;;;;6161136;23;20025;-84
2022/10/21 16:55:42;;;;;;;3.55;1.95;;;;;;;;;;6127226;23;20021;-83
2022/10/21 16:58:10;;;;;;;3.17;2.80;;;;;;;;;;6086093;23;20450;-83
2022/10/21 17:00:40;;;;;;;1.10;1.08;;;;;;;;;;6125355;23;20018;-83
2022/10/21 17:03:10;;;;;;;0.98;0.82;;;;;;;;;;6130007;23;20028;-83
2022/10/21 17:05:38;;;;;;;1.67;1.57;;;;;;;;;;6136928;23;20025;-83
2022/10/21 17:08:08;;;;;;;1.45;1.35;;;;;;;;;;6078414;23;20033;-83
2022/10/21 17:11:19;;;;;;;1.33;1.23;;;;;;;;;;6080274;23;20465;-83
2022/10/21 17:13:47;;;;;;;4.17;1.47;;;;;;;;;;6098191;23;20413;-83
2022/10/21 17:16:17;;;;;;;1.38;1.10;;;;;;;;;;6102583;23;20021;-83
2022/10/21 17:18:46;;;;;;;;;;;;;;;;;;6102992;23;20022;-84
2022/10/21 17:21:27;;;;;;;3.17;1.73;;;;;;;;;;6102858;23;19927;-83
2022/10/21 17:23:56;;;;;;;2.95;2.33;;;;;;;;;;6125579;23;20070;-84
2022/10/21 17:26:29;;;;;;;7.05;3.33;;;;;;;;;;6133760;23;20040;-83
2022/10/21 17:33:01;;;;;;;1.55;1.17;;;;;;;;;;6133148;23;20032;-94
2022/10/21 17:35:32;;;;;;;2.38;1.55;;;;;;;;;;6108451;23;20022;-94
2022/10/21 17:38:23;;;;;;;1.35;1.10;;;;;;;;;;6078614;23;20029;-93
2022/10/21 17:40:57;;;;;;;2.97;1.05;;;;;;;;;;6073197;23;20461;-94
2022/10/21 17:43:29;;;;;;;2.05;1.75;;;;;;;;;;6080518;23;20026;-93
2022/10/21 17:46:00;;;;;;;2.00;1.77;;;;;;;;;;6080068;23;20029;-93
2022/10/21 17:48:28;;;;;;;1.17;1.08;;;;;;;;;;6041159;23;20018;-94
2022/10/21 17:51:23;;;;;;;;;;;;;;;;;;;;;
2022/10/21 17:57:12;;;;;;;2.97;1.60;;;;;;;;;;6079734;23;20018;-94
2022/10/21 17:59:44;;;;;;;2.22;1.40;;;;;;;;;;6056313;23;20032;-94
2022/10/21 18:02:12;;;;;;;2.72;2.53;;;;;;;;;;6081124;23;20025;-93
2022/10/21 18:04:42;;;;;;;1.67;1.13;;;;;;;;;;6055522;23;20018;-90
2022/10/21 18:07:10;;;;;;;2.25;1.40;;;;;;;;;;6074931;23;20033;-89